sensor_id;sensor_type;location;lat;lon;timestamp;temperature;humidity
20288;DHT22;10303;51.960;8.372;2023-01-08T00:02:24;14.00;99.90
20288;DHT22;10303;51.960;8.372;2023-01-08T00:04:50;14.00;99.90
20288;DHT22;10303;51.960;8.372;2023-01-08T00:07:16;14.00;99.90
20288;DHT22;10303;51.960;8.372;2023-01-08T00:09:42;14.00;99.90
20288;DHT22;10303;51.960;8.372;2023-01-08T00:12:08;14.00;99.90
20288;DHT22;10303;51.960;8.372;2023-01-08T00:14:34;14.00;99.90
20288;DHT22;10303;51.960;8.372;2023-01-08T00:17:00;14.00;99.90
20288;DHT22;10303;51.960;8.372;2023-01-08T00:19:27;14.00;99.90
20288;DHT22;10303;51.960;8.372;2023-01-08T00:21:54;14.00;99.90
20288;DHT22;10303;51.960;8.372;2023-01-08T00:24:19;14.00;99.90
20288;DHT22;10303;51.960;8.372;2023-01-08T00:26:45;14.00;99.90
20288;DHT22;10303;51.960;8.372;2023-01-08T00:29:11;14.10;99.90
20288;DHT22;10303;51.960;8.372;2023-01-08T00:31:37;14.00;99.90
20288;DHT22;10303;51.960;8.372;2023-01-08T00:34:04;14.10;99.90
20288;DHT22;10303;51.960;8.372;2023-01-08T00:36:30;14.00;99.90
20288;DHT22;10303;51.960;8.372;2023-01-08T00:38:58;14.10;99.90
20288;DHT22;10303;51.960;8.372;2023-01-08T00:41:24;14.10;99.90
20288;DHT22;10303;51.960;8.372;2023-01-08T00:43:50;14.10;99.90
20288;DHT22;10303;51.960;8.372;2023-01-08T00:46:16;14.10;99.90
20288;DHT22;10303;51.960;8.372;2023-01-08T00:48:41;14.10;99.90
20288;DHT22;10303;51.960;8.372;2023-01-08T00:51:08;14.10;99.90
20288;DHT22;10303;51.960;8.372;2023-01-08T00:53:34;14.10;99.90
20288;DHT22;10303;51.960;8.372;2023-01-08T00:56:04;14.10;99.90
20288;DHT22;10303;51.960;8.372;2023-01-08T00:58:32;14.10;99.90
20288;DHT22;10303;51.960;8.372;2023-01-08T01:00:58;14.10;99.90
20288;DHT22;10303;51.960;8.372;2023-01-08T01:03:24;14.10;99.90
20288;DHT22;10303;51.960;8.372;2023-01-08T01:06:02;14.10;99.90
20288;DHT22;10303;51.960;8.372;2023-01-08T01:08:29;14.10;99.90
20288;DHT22;10303;51.960;8.372;2023-01-08T01:10:56;14.10;99.90
20288;DHT22;10303;51.960;8.372;2023-01-08T01:13:22;14.10;99.90
20288;DHT22;10303;51.960;8.372;2023-01-08T01:16:01;14.10;99.90
20288;DHT22;10303;51.960;8.372;2023-01-08T01:18:28;14.10;99.90
20288;DHT22;10303;51.960;8.372;2023-01-08T01:20:54;14.10;99.90
20288;DHT22;10303;51.960;8.372;2023-01-08T01:23:20;14.10;99.90
20288;DHT22;10303;51.960;8.372;2023-01-08T01:25:46;14.10;99.90
20288;DHT22;10303;51.960;8.372;2023-01-08T01:28:12;14.10;99.90
20288;DHT22;10303;51.960;8.372;2023-01-08T01:30:38;14.20;99.90
20288;DHT22;10303;51.960;8.372;2023-01-08T01:33:04;14.10;99.90
20288;DHT22;10303;51.960;8.372;2023-01-08T01:35:30;14.10;99.90
20288;DHT22;10303;51.960;8.372;2023-01-08T01:37:55;14.10;99.90
20288;DHT22;10303;51.960;8.372;2023-01-08T01:40:21;14.10;99.90
20288;DHT22;10303;51.960;8.372;2023-01-08T01:42:47;14.10;99.90
20288;DHT22;10303;51.960;8.372;2023-01-08T01:48:03;14.00;99.90
20288;DHT22;10303;51.960;8.372;2023-01-08T01:50:47;14.00;99.90
20288;DHT22;10303;51.960;8.372;2023-01-08T01:53:26;14.10;99.90
20288;DHT22;10303;51.960;8.372;2023-01-08T01:55:57;14.20;99.90
20288;DHT22;10303;51.960;8.372;2023-01-08T01:58:27;14.20;99.90
20288;DHT22;10303;51.960;8.372;2023-01-08T02:00:57;14.10;99.90
20288;DHT22;10303;51.960;8.372;2023-01-08T02:03:29;14.10;99.90
20288;DHT22;10303;51.960;8.372;2023-01-08T02:11:58;14.10;99.90
20288;DHT22;10303;51.960;8.372;2023-01-08T02:20:55;14.10;99.90
20288;DHT22;10303;51.960;8.372;2023-01-08T02:29:09;14.10;99.90
20288;DHT22;10303;51.960;8.372;2023-01-08T02:31:39;14.10;99.90
20288;DHT22;10303;51.960;8.372;2023-01-08T02:34:07;14.10;99.90
20288;DHT22;10303;51.960;8.372;2023-01-08T02:39:43;14.10;99.90
20288;DHT22;10303;51.960;8.372;2023-01-08T02:45:13;14.10;99.90
20288;DHT22;10303;51.960;8.372;2023-01-08T02:48:12;14.10;99.90
20288;DHT22;10303;51.960;8.372;2023-01-08T02:51:03;14.10;99.90
20288;DHT22;10303;51.960;8.372;2023-01-08T02:53:40;14.10;99.90
20288;DHT22;10303;51.960;8.372;2023-01-08T02:56:30;14.10;99.90
20288;DHT22;10303;51.960;8.372;2023-01-08T02:58:59;14.10;99.90
20288;DHT22;10303;51.960;8.372;2023-01-08T03:01:30;14.10;99.90
20288;DHT22;10303;51.960;8.372;2023-01-08T03:04:03;14.10;99.90
20288;DHT22;10303;51.960;8.372;2023-01-08T03:06:34;14.10;99.90
20288;DHT22;10303;51.960;8.372;2023-01-08T03:09:00;14.10;99.90
20288;DHT22;10303;51.960;8.372;2023-01-08T03:11:35;14.10;99.90
20288;DHT22;10303;51.960;8.372;2023-01-08T03:16:42;14.10;99.90
20288;DHT22;10303;51.960;8.372;2023-01-08T03:21:47;14.10;99.90
20288;DHT22;10303;51.960;8.372;2023-01-08T03:24:19;14.10;99.90
20288;DHT22;10303;51.960;8.372;2023-01-08T03:26:51;14.10;99.90
20288;DHT22;10303;51.960;8.372;2023-01-08T03:29:20;14.10;99.90
20288;DHT22;10303;51.960;8.372;2023-01-08T03:31:55;14.00;99.90
20288;DHT22;10303;51.960;8.372;2023-01-08T03:34:26;14.00;99.90
20288;DHT22;10303;51.960;8.372;2023-01-08T03:36:57;14.10;99.90
20288;DHT22;10303;51.960;8.372;2023-01-08T03:39:31;14.10;99.90
20288;DHT22;10303;51.960;8.372;2023-01-08T03:42:10;14.10;99.90
20288;DHT22;10303;51.960;8.372;2023-01-08T03:44:38;14.10;99.90
20288;DHT22;10303;51.960;8.372;2023-01-08T03:47:04;14.10;99.90
20288;DHT22;10303;51.960;8.372;2023-01-08T03:49:34;14.10;99.90
20288;DHT22;10303;51.960;8.372;2023-01-08T03:52:01;14.20;99.90
20288;DHT22;10303;51.960;8.372;2023-01-08T03:54:32;14.20;99.90
20288;DHT22;10303;51.960;8.372;2023-01-08T03:57:00;14.20;99.90
20288;DHT22;10303;51.960;8.372;2023-01-08T03:59:26;14.20;99.90
20288;DHT22;10303;51.960;8.372;2023-01-08T04:01:52;14.20;99.90
20288;DHT22;10303;51.960;8.372;2023-01-08T04:04:18;14.10;99.90
20288;DHT22;10303;51.960;8.372;2023-01-08T04:06:44;14.10;99.90
20288;DHT22;10303;51.960;8.372;2023-01-08T04:09:09;14.20;99.90
20288;DHT22;10303;51.960;8.372;2023-01-08T04:11:35;14.20;99.90
20288;DHT22;10303;51.960;8.372;2023-01-08T04:14:01;14.10;99.90
20288;DHT22;10303;51.960;8.372;2023-01-08T04:16:27;14.20;99.90
20288;DHT22;10303;51.960;8.372;2023-01-08T04:18:53;14.10;99.90
20288;DHT22;10303;51.960;8.372;2023-01-08T04:21:19;14.10;99.90
20288;DHT22;10303;51.960;8.372;2023-01-08T04:23:45;14.10;99.90
20288;DHT22;10303;51.960;8.372;2023-01-08T04:26:11;14.30;99.90
20288;DHT22;10303;51.960;8.372;2023-01-08T04:28:38;14.10;99.90
20288;DHT22;10303;51.960;8.372;2023-01-08T04:31:05;14.10;99.90
20288;DHT22;10303;51.960;8.372;2023-01-08T04:33:33;14.10;99.90
20288;DHT22;10303;51.960;8.372;2023-01-08T04:35:59;14.10;99.90
20288;DHT22;10303;51.960;8.372;2023-01-08T04:38:25;14.00;99.90
20288;DHT22;10303;51.960;8.372;2023-01-08T04:40:59;14.00;99.90
20288;DHT22;10303;51.960;8.372;2023-01-08T04:43:27;14.00;99.90
20288;DHT22;10303;51.960;8.372;2023-01-08T04:45:58;14.00;99.90
20288;DHT22;10303;51.960;8.372;2023-01-08T04:48:25;14.00;99.90
20288;DHT22;10303;51.960;8.372;2023-01-08T04:50:51;14.00;99.90
20288;DHT22;10303;51.960;8.372;2023-01-08T04:53:17;14.10;99.90
20288;DHT22;10303;51.960;8.372;2023-01-08T04:55:43;14.00;99.90
20288;DHT22;10303;51.960;8.372;2023-01-08T04:58:09;14.00;99.90
20288;DHT22;10303;51.960;8.372;2023-01-08T05:00:35;14.00;99.90
20288;DHT22;10303;51.960;8.372;2023-01-08T05:03:03;14.00;99.90
20288;DHT22;10303;51.960;8.372;2023-01-08T05:05:29;14.10;99.90
20288;DHT22;10303;51.960;8.372;2023-01-08T05:07:55;14.20;99.90
20288;DHT22;10303;51.960;8.372;2023-01-08T05:10:21;13.90;99.90
20288;DHT22;10303;51.960;8.372;2023-01-08T05:12:47;13.90;99.90
20288;DHT22;10303;51.960;8.372;2023-01-08T05:15:13;14.00;99.90
20288;DHT22;10303;51.960;8.372;2023-01-08T05:17:38;14.00;99.90
20288;DHT22;10303;51.960;8.372;2023-01-08T05:20:05;13.90;99.90
20288;DHT22;10303;51.960;8.372;2023-01-08T05:22:31;13.90;99.90
20288;DHT22;10303;51.960;8.372;2023-01-08T05:24:57;13.90;99.90
20288;DHT22;10303;51.960;8.372;2023-01-08T05:27:23;14.10;99.90
20288;DHT22;10303;51.960;8.372;2023-01-08T05:29:48;13.90;99.90
20288;DHT22;10303;51.960;8.372;2023-01-08T05:32:17;13.90;99.90
20288;DHT22;10303;51.960;8.372;2023-01-08T05:34:44;13.90;99.90
20288;DHT22;10303;51.960;8.372;2023-01-08T05:37:10;13.90;99.90
20288;DHT22;10303;51.960;8.372;2023-01-08T05:39:37;13.90;99.90
20288;DHT22;10303;51.960;8.372;2023-01-08T05:42:03;13.90;99.90
20288;DHT22;10303;51.960;8.372;2023-01-08T05:44:29;13.90;99.90
20288;DHT22;10303;51.960;8.372;2023-01-08T05:46:55;13.90;99.90
20288;DHT22;10303;51.960;8.372;2023-01-08T05:49:22;14.00;99.90
20288;DHT22;10303;51.960;8.372;2023-01-08T05:51:49;14.10;99.90
20288;DHT22;10303;51.960;8.372;2023-01-08T05:54:15;14.00;99.90
20288;DHT22;10303;51.960;8.372;2023-01-08T05:56:41;14.00;99.90
20288;DHT22;10303;51.960;8.372;2023-01-08T05:59:11;14.00;99.90
20288;DHT22;10303;51.960;8.372;2023-01-08T06:01:38;14.00;99.90
20288;DHT22;10303;51.960;8.372;2023-01-08T06:04:05;14.00;99.90
20288;DHT22;10303;51.960;8.372;2023-01-08T06:06:30;14.20;99.90
20288;DHT22;10303;51.960;8.372;2023-01-08T06:08:56;14.00;99.90
20288;DHT22;10303;51.960;8.372;2023-01-08T06:11:22;14.10;99.90
20288;DHT22;10303;51.960;8.372;2023-01-08T06:13:48;14.10;99.90
20288;DHT22;10303;51.960;8.372;2023-01-08T06:16:14;14.00;99.90
20288;DHT22;10303;51.960;8.372;2023-01-08T06:18:41;14.00;99.90
20288;DHT22;10303;51.960;8.372;2023-01-08T06:21:08;14.10;99.90
20288;DHT22;10303;51.960;8.372;2023-01-08T06:23:34;14.00;99.90
20288;DHT22;10303;51.960;8.372;2023-01-08T06:26:01;14.10;99.90
20288;DHT22;10303;51.960;8.372;2023-01-08T06:28:28;14.00;99.90
20288;DHT22;10303;51.960;8.372;2023-01-08T06:30:59;14.00;99.90
20288;DHT22;10303;51.960;8.372;2023-01-08T06:33:25;14.00;99.90
20288;DHT22;10303;51.960;8.372;2023-01-08T06:35:51;14.00;99.90
20288;DHT22;10303;51.960;8.372;2023-01-08T06:38:17;14.10;99.90
20288;DHT22;10303;51.960;8.372;2023-01-08T06:40:44;14.10;99.90
20288;DHT22;10303;51.960;8.372;2023-01-08T06:43:11;14.10;99.90
20288;DHT22;10303;51.960;8.372;2023-01-08T06:45:37;14.00;99.90
20288;DHT22;10303;51.960;8.372;2023-01-08T06:48:05;14.00;99.90
20288;DHT22;10303;51.960;8.372;2023-01-08T06:50:32;14.00;99.90
20288;DHT22;10303;51.960;8.372;2023-01-08T06:52:59;14.10;99.90
20288;DHT22;10303;51.960;8.372;2023-01-08T06:55:25;14.00;99.90
20288;DHT22;10303;51.960;8.372;2023-01-08T06:57:58;14.00;99.90
20288;DHT22;10303;51.960;8.372;2023-01-08T07:00:24;14.00;99.90
20288;DHT22;10303;51.960;8.372;2023-01-08T07:02:53;14.00;99.90
20288;DHT22;10303;51.960;8.372;2023-01-08T07:05:20;14.00;99.90
20288;DHT22;10303;51.960;8.372;2023-01-08T07:07:46;14.00;99.90
20288;DHT22;10303;51.960;8.372;2023-01-08T07:10:12;14.00;99.90
20288;DHT22;10303;51.960;8.372;2023-01-08T07:12:38;13.90;99.90
20288;DHT22;10303;51.960;8.372;2023-01-08T07:15:04;13.90;99.90
20288;DHT22;10303;51.960;8.372;2023-01-08T07:17:34;13.90;99.90
20288;DHT22;10303;51.960;8.372;2023-01-08T07:20:00;13.90;99.90
20288;DHT22;10303;51.960;8.372;2023-01-08T07:22:26;13.90;99.90
20288;DHT22;10303;51.960;8.372;2023-01-08T07:24:52;13.90;99.90
20288;DHT22;10303;51.960;8.372;2023-01-08T07:27:18;13.90;99.90
20288;DHT22;10303;51.960;8.372;2023-01-08T07:29:44;14.00;99.90
20288;DHT22;10303;51.960;8.372;2023-01-08T07:32:10;13.90;99.90
20288;DHT22;10303;51.960;8.372;2023-01-08T07:34:36;13.90;99.90
20288;DHT22;10303;51.960;8.372;2023-01-08T07:37:02;13.90;99.90
20288;DHT22;10303;51.960;8.372;2023-01-08T07:39:28;13.80;99.90
20288;DHT22;10303;51.960;8.372;2023-01-08T07:41:54;13.80;99.90
20288;DHT22;10303;51.960;8.372;2023-01-08T07:44:21;13.80;99.90
20288;DHT22;10303;51.960;8.372;2023-01-08T07:46:47;13.80;99.90
20288;DHT22;10303;51.960;8.372;2023-01-08T07:49:13;13.80;99.90
20288;DHT22;10303;51.960;8.372;2023-01-08T07:51:39;13.80;99.90
20288;DHT22;10303;51.960;8.372;2023-01-08T07:54:05;13.80;99.90
20288;DHT22;10303;51.960;8.372;2023-01-08T07:56:31;13.80;99.90
20288;DHT22;10303;51.960;8.372;2023-01-08T07:58:57;13.80;99.90
20288;DHT22;10303;51.960;8.372;2023-01-08T08:01:23;13.90;99.90
20288;DHT22;10303;51.960;8.372;2023-01-08T08:03:50;13.80;99.90
20288;DHT22;10303;51.960;8.372;2023-01-08T08:06:17;13.80;99.90
20288;DHT22;10303;51.960;8.372;2023-01-08T08:08:43;13.90;99.90
20288;DHT22;10303;51.960;8.372;2023-01-08T08:11:09;13.80;99.90
20288;DHT22;10303;51.960;8.372;2023-01-08T08:13:36;13.80;99.90
20288;DHT22;10303;51.960;8.372;2023-01-08T08:16:07;13.80;99.90
20288;DHT22;10303;51.960;8.372;2023-01-08T08:18:33;13.80;99.90
20288;DHT22;10303;51.960;8.372;2023-01-08T08:20:59;13.80;99.90
20288;DHT22;10303;51.960;8.372;2023-01-08T08:23:24;13.80;99.90
20288;DHT22;10303;51.960;8.372;2023-01-08T08:25:50;13.80;99.90
20288;DHT22;10303;51.960;8.372;2023-01-08T08:28:17;13.90;99.90
20288;DHT22;10303;51.960;8.372;2023-01-08T08:30:43;13.80;99.90
20288;DHT22;10303;51.960;8.372;2023-01-08T08:33:09;13.80;99.90
20288;DHT22;10303;51.960;8.372;2023-01-08T08:35:35;13.80;99.90
20288;DHT22;10303;51.960;8.372;2023-01-08T08:38:02;13.80;99.90
20288;DHT22;10303;51.960;8.372;2023-01-08T08:40:29;13.80;99.90
20288;DHT22;10303;51.960;8.372;2023-01-08T08:42:59;13.90;99.90
20288;DHT22;10303;51.960;8.372;2023-01-08T08:45:27;13.80;99.90
20288;DHT22;10303;51.960;8.372;2023-01-08T08:47:53;13.80;99.90
20288;DHT22;10303;51.960;8.372;2023-01-08T08:50:20;13.80;99.90
20288;DHT22;10303;51.960;8.372;2023-01-08T08:52:47;13.80;99.90
20288;DHT22;10303;51.960;8.372;2023-01-08T08:55:14;13.80;99.90
20288;DHT22;10303;51.960;8.372;2023-01-08T08:57:44;13.80;99.90
20288;DHT22;10303;51.960;8.372;2023-01-08T09:00:12;13.80;99.90
20288;DHT22;10303;51.960;8.372;2023-01-08T09:02:39;13.70;99.90
20288;DHT22;10303;51.960;8.372;2023-01-08T09:05:05;13.90;99.90
20288;DHT22;10303;51.960;8.372;2023-01-08T09:07:31;13.50;99.90
20288;DHT22;10303;51.960;8.372;2023-01-08T09:09:57;13.50;99.90
20288;DHT22;10303;51.960;8.372;2023-01-08T09:12:23;13.50;99.90
20288;DHT22;10303;51.960;8.372;2023-01-08T09:14:49;13.50;99.90
20288;DHT22;10303;51.960;8.372;2023-01-08T09:17:16;13.50;99.90
20288;DHT22;10303;51.960;8.372;2023-01-08T09:19:42;13.50;99.90
20288;DHT22;10303;51.960;8.372;2023-01-08T09:22:09;13.50;99.90
20288;DHT22;10303;51.960;8.372;2023-01-08T09:24:35;13.60;99.90
20288;DHT22;10303;51.960;8.372;2023-01-08T09:27:00;13.60;99.90
20288;DHT22;10303;51.960;8.372;2023-01-08T09:29:26;13.60;99.90
20288;DHT22;10303;51.960;8.372;2023-01-08T09:31:53;13.80;99.90
20288;DHT22;10303;51.960;8.372;2023-01-08T09:34:20;13.70;99.90
20288;DHT22;10303;51.960;8.372;2023-01-08T09:36:46;13.70;99.90
20288;DHT22;10303;51.960;8.372;2023-01-08T09:39:12;13.80;99.90
20288;DHT22;10303;51.960;8.372;2023-01-08T09:41:41;13.80;99.90
20288;DHT22;10303;51.960;8.372;2023-01-08T09:44:14;13.70;99.90
20288;DHT22;10303;51.960;8.372;2023-01-08T09:46:45;13.80;99.90
20288;DHT22;10303;51.960;8.372;2023-01-08T09:49:20;13.70;99.90
20288;DHT22;10303;51.960;8.372;2023-01-08T09:51:57;13.70;99.90
20288;DHT22;10303;51.960;8.372;2023-01-08T09:54:25;13.70;99.90
20288;DHT22;10303;51.960;8.372;2023-01-08T09:56:51;13.70;99.90
20288;DHT22;10303;51.960;8.372;2023-01-08T09:59:19;14.00;99.90
20288;DHT22;10303;51.960;8.372;2023-01-08T10:01:46;13.70;99.90
20288;DHT22;10303;51.960;8.372;2023-01-08T10:04:24;13.70;99.90
20288;DHT22;10303;51.960;8.372;2023-01-08T10:07:17;13.70;99.90
20288;DHT22;10303;51.960;8.372;2023-01-08T10:09:47;13.70;99.90
20288;DHT22;10303;51.960;8.372;2023-01-08T10:12:30;13.70;99.90
20288;DHT22;10303;51.960;8.372;2023-01-08T10:15:07;13.90;99.90
20288;DHT22;10303;51.960;8.372;2023-01-08T10:17:40;13.80;99.90
20288;DHT22;10303;51.960;8.372;2023-01-08T10:20:15;14.00;99.90
20288;DHT22;10303;51.960;8.372;2023-01-08T10:22:44;14.00;99.90
20288;DHT22;10303;51.960;8.372;2023-01-08T10:25:26;14.10;99.90
20288;DHT22;10303;51.960;8.372;2023-01-08T10:27:57;14.20;99.90
20288;DHT22;10303;51.960;8.372;2023-01-08T10:30:34;14.30;99.90
20288;DHT22;10303;51.960;8.372;2023-01-08T10:33:23;14.60;99.90
20288;DHT22;10303;51.960;8.372;2023-01-08T10:36:05;14.60;99.90
20288;DHT22;10303;51.960;8.372;2023-01-08T10:38:47;14.70;99.90
20288;DHT22;10303;51.960;8.372;2023-01-08T10:41:14;14.80;99.90
20288;DHT22;10303;51.960;8.372;2023-01-08T10:43:52;15.00;99.90
20288;DHT22;10303;51.960;8.372;2023-01-08T10:46:40;15.00;99.90
20288;DHT22;10303;51.960;8.372;2023-01-08T10:52:04;15.10;99.90
20288;DHT22;10303;51.960;8.372;2023-01-08T10:54:36;15.30;99.90
20288;DHT22;10303;51.960;8.372;2023-01-08T10:57:20;15.40;99.90
20288;DHT22;10303;51.960;8.372;2023-01-08T10:59:46;15.50;99.90
20288;DHT22;10303;51.960;8.372;2023-01-08T11:02:37;15.60;99.90
20288;DHT22;10303;51.960;8.372;2023-01-08T11:05:06;15.70;99.90
20288;DHT22;10303;51.960;8.372;2023-01-08T11:07:35;15.80;99.90
20288;DHT22;10303;51.960;8.372;2023-01-08T11:10:05;16.00;99.90
20288;DHT22;10303;51.960;8.372;2023-01-08T11:12:39;16.00;99.90
20288;DHT22;10303;51.960;8.372;2023-01-08T11:17:44;15.90;99.90
20288;DHT22;10303;51.960;8.372;2023-01-08T11:20:27;16.10;99.90
20288;DHT22;10303;51.960;8.372;2023-01-08T11:25:33;16.50;99.90
20288;DHT22;10303;51.960;8.372;2023-01-08T11:28:01;16.60;99.90
20288;DHT22;10303;51.960;8.372;2023-01-08T11:30:29;16.80;99.90
20288;DHT22;10303;51.960;8.372;2023-01-08T11:33:05;17.10;99.90
20288;DHT22;10303;51.960;8.372;2023-01-08T11:35:42;17.30;99.90
20288;DHT22;10303;51.960;8.372;2023-01-08T11:38:13;17.50;99.90
20288;DHT22;10303;51.960;8.372;2023-01-08T11:40:57;17.80;99.90
20288;DHT22;10303;51.960;8.372;2023-01-08T11:57:53;19.20;99.70
20288;DHT22;10303;51.960;8.372;2023-01-08T12:04:00;19.30;99.50
20288;DHT22;10303;51.960;8.372;2023-01-08T12:06:57;19.30;99.70
20288;DHT22;10303;51.960;8.372;2023-01-08T12:09:44;19.30;99.10
20288;DHT22;10303;51.960;8.372;2023-01-08T12:27:07;19.80;97.10
20288;DHT22;10303;51.960;8.372;2023-01-08T12:30:12;19.90;97.50
20288;DHT22;10303;51.960;8.372;2023-01-08T12:32:55;20.00;96.50
20288;DHT22;10303;51.960;8.372;2023-01-08T12:35:30;20.10;96.80
20288;DHT22;10303;51.960;8.372;2023-01-08T12:40:59;20.30;95.50
20288;DHT22;10303;51.960;8.372;2023-01-08T12:43:56;20.30;94.50
20288;DHT22;10303;51.960;8.372;2023-01-08T12:46:31;20.40;95.30
20288;DHT22;10303;51.960;8.372;2023-01-08T12:48:59;20.50;95.80
20288;DHT22;10303;51.960;8.372;2023-01-08T12:57:20;20.60;94.10
20288;DHT22;10303;51.960;8.372;2023-01-08T13:00:21;20.60;92.60
20288;DHT22;10303;51.960;8.372;2023-01-08T13:03:04;20.60;92.80
20288;DHT22;10303;51.960;8.372;2023-01-08T13:05:39;20.60;92.40
20288;DHT22;10303;51.960;8.372;2023-01-08T13:08:23;20.50;92.20
20288;DHT22;10303;51.960;8.372;2023-01-08T13:10:56;20.30;91.40
20288;DHT22;10303;51.960;8.372;2023-01-08T13:13:43;20.10;91.70
20288;DHT22;10303;51.960;8.372;2023-01-08T13:19:26;19.60;91.30
20288;DHT22;10303;51.960;8.372;2023-01-08T13:22:02;19.40;91.80
20288;DHT22;10303;51.960;8.372;2023-01-08T13:29:47;18.70;92.50
20288;DHT22;10303;51.960;8.372;2023-01-08T13:32:36;18.50;92.50
20288;DHT22;10303;51.960;8.372;2023-01-08T13:37:40;18.20;93.10
20288;DHT22;10303;51.960;8.372;2023-01-08T13:40:53;17.90;93.00
20288;DHT22;10303;51.960;8.372;2023-01-08T13:43:28;17.70;93.50
20288;DHT22;10303;51.960;8.372;2023-01-08T13:48:27;17.40;94.00
20288;DHT22;10303;51.960;8.372;2023-01-08T13:50:55;17.20;94.40
20288;DHT22;10303;51.960;8.372;2023-01-08T13:53:22;17.10;94.80
20288;DHT22;10303;51.960;8.372;2023-01-08T13:56:00;17.00;95.00
20288;DHT22;10303;51.960;8.372;2023-01-08T13:58:35;16.90;95.50
20288;DHT22;10303;51.960;8.372;2023-01-08T14:01:16;16.80;95.70
20288;DHT22;10303;51.960;8.372;2023-01-08T14:03:46;16.50;96.30
20288;DHT22;10303;51.960;8.372;2023-01-08T14:06:22;16.50;96.60
20288;DHT22;10303;51.960;8.372;2023-01-08T14:11:41;16.50;97.30
20288;DHT22;10303;51.960;8.372;2023-01-08T14:14:18;16.50;97.10
20288;DHT22;10303;51.960;8.372;2023-01-08T14:16:51;16.50;97.50
20288;DHT22;10303;51.960;8.372;2023-01-08T14:19:20;16.50;97.50
20288;DHT22;10303;51.960;8.372;2023-01-08T14:21:50;16.50;97.40
20288;DHT22;10303;51.960;8.372;2023-01-08T14:24:19;16.50;97.20
20288;DHT22;10303;51.960;8.372;2023-01-08T14:26:58;16.40;97.20
20288;DHT22;10303;51.960;8.372;2023-01-08T14:29:27;16.40;97.30
20288;DHT22;10303;51.960;8.372;2023-01-08T14:31:57;16.30;97.40
20288;DHT22;10303;51.960;8.372;2023-01-08T14:34:29;16.30;97.40
20288;DHT22;10303;51.960;8.372;2023-01-08T14:36:56;16.20;97.40
20288;DHT22;10303;51.960;8.372;2023-01-08T14:39:41;16.20;97.40
20288;DHT22;10303;51.960;8.372;2023-01-08T14:42:12;16.10;97.50
20288;DHT22;10303;51.960;8.372;2023-01-08T14:47:41;15.90;97.60
20288;DHT22;10303;51.960;8.372;2023-01-08T14:52:44;15.60;97.90
20288;DHT22;10303;51.960;8.372;2023-01-08T14:55:14;15.60;97.90
20288;DHT22;10303;51.960;8.372;2023-01-08T14:57:50;15.50;97.90
20288;DHT22;10303;51.960;8.372;2023-01-08T15:00:24;15.50;97.90
20288;DHT22;10303;51.960;8.372;2023-01-08T15:02:52;15.10;98.60
20288;DHT22;10303;51.960;8.372;2023-01-08T15:05:29;14.50;98.80
20288;DHT22;10303;51.960;8.372;2023-01-08T15:08:01;13.60;99.90
20288;DHT22;10303;51.960;8.372;2023-01-08T15:10:39;13.40;99.90
20288;DHT22;10303;51.960;8.372;2023-01-08T15:13:21;13.50;99.90
20288;DHT22;10303;51.960;8.372;2023-01-08T15:15:53;13.80;99.90
20288;DHT22;10303;51.960;8.372;2023-01-08T15:18:23;14.00;99.90
20288;DHT22;10303;51.960;8.372;2023-01-08T15:20:50;13.80;99.90
20288;DHT22;10303;51.960;8.372;2023-01-08T15:23:27;13.80;99.90
20288;DHT22;10303;51.960;8.372;2023-01-08T15:26:08;13.90;99.90
20288;DHT22;10303;51.960;8.372;2023-01-08T15:28:36;14.10;99.90
20288;DHT22;10303;51.960;8.372;2023-01-08T15:31:03;14.00;99.90
20288;DHT22;10303;51.960;8.372;2023-01-08T15:33:29;14.00;99.90
20288;DHT22;10303;51.960;8.372;2023-01-08T15:35:55;14.00;99.90
20288;DHT22;10303;51.960;8.372;2023-01-08T15:38:21;14.00;99.90
20288;DHT22;10303;51.960;8.372;2023-01-08T15:40:49;14.00;99.90
20288;DHT22;10303;51.960;8.372;2023-01-08T15:43:19;14.00;99.90
20288;DHT22;10303;51.960;8.372;2023-01-08T15:45:47;14.20;99.90
20288;DHT22;10303;51.960;8.372;2023-01-08T15:48:14;14.00;99.90
20288;DHT22;10303;51.960;8.372;2023-01-08T15:50:42;13.90;99.90
20288;DHT22;10303;51.960;8.372;2023-01-08T15:53:17;13.80;99.90
20288;DHT22;10303;51.960;8.372;2023-01-08T15:55:47;13.80;99.90
20288;DHT22;10303;51.960;8.372;2023-01-08T15:58:14;13.80;99.90
20288;DHT22;10303;51.960;8.372;2023-01-08T16:00:42;13.70;99.90
20288;DHT22;10303;51.960;8.372;2023-01-08T16:03:11;13.80;99.90
20288;DHT22;10303;51.960;8.372;2023-01-08T16:05:38;13.60;99.90
20288;DHT22;10303;51.960;8.372;2023-01-08T16:08:05;13.60;99.90
20288;DHT22;10303;51.960;8.372;2023-01-08T16:10:31;13.50;99.90
20288;DHT22;10303;51.960;8.372;2023-01-08T16:12:59;13.60;99.90
20288;DHT22;10303;51.960;8.372;2023-01-08T16:15:26;13.50;99.90
20288;DHT22;10303;51.960;8.372;2023-01-08T16:17:53;13.40;99.90
20288;DHT22;10303;51.960;8.372;2023-01-08T16:20:20;13.40;99.90
20288;DHT22;10303;51.960;8.372;2023-01-08T16:22:45;13.50;99.90
20288;DHT22;10303;51.960;8.372;2023-01-08T16:25:11;13.30;99.90
20288;DHT22;10303;51.960;8.372;2023-01-08T16:27:37;13.20;99.90
20288;DHT22;10303;51.960;8.372;2023-01-08T16:30:06;13.20;99.90
20288;DHT22;10303;51.960;8.372;2023-01-08T16:32:34;13.10;99.90
20288;DHT22;10303;51.960;8.372;2023-01-08T16:35:00;13.10;99.90
20288;DHT22;10303;51.960;8.372;2023-01-08T16:37:26;13.20;99.90
20288;DHT22;10303;51.960;8.372;2023-01-08T16:39:52;13.10;99.90
20288;DHT22;10303;51.960;8.372;2023-01-08T16:42:18;13.00;99.90
20288;DHT22;10303;51.960;8.372;2023-01-08T16:44:44;13.00;99.90
20288;DHT22;10303;51.960;8.372;2023-01-08T16:47:09;12.90;99.90
20288;DHT22;10303;51.960;8.372;2023-01-08T16:49:35;12.90;99.90
20288;DHT22;10303;51.960;8.372;2023-01-08T16:52:01;12.80;99.90
20288;DHT22;10303;51.960;8.372;2023-01-08T16:54:28;12.80;99.90
20288;DHT22;10303;51.960;8.372;2023-01-08T16:56:54;12.70;99.90
20288;DHT22;10303;51.960;8.372;2023-01-08T16:59:20;12.80;99.90
20288;DHT22;10303;51.960;8.372;2023-01-08T17:01:46;12.70;99.90
20288;DHT22;10303;51.960;8.372;2023-01-08T17:04:12;12.70;99.90
20288;DHT22;10303;51.960;8.372;2023-01-08T17:06:38;12.60;99.90
20288;DHT22;10303;51.960;8.372;2023-01-08T17:09:03;12.60;99.90
20288;DHT22;10303;51.960;8.372;2023-01-08T17:11:31;12.70;99.90
20288;DHT22;10303;51.960;8.372;2023-01-08T17:13:57;12.70;99.90
20288;DHT22;10303;51.960;8.372;2023-01-08T17:16:23;12.50;99.90
20288;DHT22;10303;51.960;8.372;2023-01-08T17:18:49;12.50;99.90
20288;DHT22;10303;51.960;8.372;2023-01-08T17:21:15;12.50;99.90
20288;DHT22;10303;51.960;8.372;2023-01-08T17:23:43;12.50;99.90
20288;DHT22;10303;51.960;8.372;2023-01-08T17:26:12;12.50;99.90
20288;DHT22;10303;51.960;8.372;2023-01-08T17:28:39;12.50;99.90
20288;DHT22;10303;51.960;8.372;2023-01-08T17:31:08;12.50;99.90